createdAt,value
2023-04-21T00:00:47.775Z,13.40
2023-04-21T00:03:15.643Z,14.55
2023-04-21T00:05:44.981Z,13.68
2023-04-21T00:08:12.623Z,14.38
2023-04-21T00:10:40.438Z,14.25
2023-04-21T00:13:08.278Z,14.48
2023-04-21T00:15:36.262Z,15.40
2023-04-21T00:18:04.766Z,16.33
2023-04-21T00:20:32.938Z,15.82
2023-04-21T00:23:03.630Z,15.55
2023-04-21T00:25:34.313Z,15.65
2023-04-21T00:28:03.958Z,16.10
2023-04-21T00:30:31.575Z,16.60
2023-04-21T00:32:59.301Z,14.85
2023-04-21T00:35:27.204Z,14.80
2023-04-21T00:37:54.819Z,15.07
2023-04-21T00:40:24.287Z,14.45
2023-04-21T00:42:52.091Z,15.30
2023-04-21T00:45:22.118Z,15.50
2023-04-21T00:47:50.015Z,14.55
2023-04-21T00:50:17.854Z,15.85
2023-04-21T00:52:47.070Z,15.45
2023-04-21T00:55:15.565Z,15.90
2023-04-21T00:57:45.241Z,15.25
2023-04-21T01:00:14.883Z,15.05
2023-04-21T01:02:43.037Z,14.55
2023-04-21T01:05:12.198Z,13.80
2023-04-21T01:07:40.676Z,12.13
2023-04-21T01:10:10.073Z,13.20
2023-04-21T01:12:45.557Z,12.70
2023-04-21T01:15:14.216Z,12.00
2023-04-21T01:17:42.270Z,12.50
2023-04-21T01:20:13.462Z,12.30
2023-04-21T01:22:44.739Z,12.20
2023-04-21T01:25:12.446Z,13.35
2023-04-21T01:27:40.347Z,11.52
2023-04-21T01:30:09.990Z,11.45
2023-04-21T01:32:37.960Z,10.40
2023-04-21T01:35:06.669Z,10.60
2023-04-21T01:37:35.262Z,13.43
2023-04-21T01:40:07.004Z,13.73
2023-04-21T01:42:36.105Z,15.30
2023-04-21T01:45:03.956Z,12.75
2023-04-21T01:47:31.629Z,14.25
2023-04-21T01:49:59.465Z,13.60
2023-04-21T01:52:27.235Z,14.20
2023-04-21T01:54:55.692Z,15.63
2023-04-21T01:57:25.012Z,14.85
2023-04-21T01:59:52.746Z,16.00
2023-04-21T02:02:20.389Z,14.05
2023-04-21T02:04:48.128Z,14.75
2023-04-21T02:07:15.813Z,13.65
2023-04-21T02:09:43.731Z,12.52
2023-04-21T02:12:12.380Z,13.23
2023-04-21T02:14:41.631Z,12.68
2023-04-21T02:17:12.637Z,13.38
2023-04-21T02:19:40.922Z,11.15
2023-04-21T02:22:10.638Z,12.43
2023-04-21T02:24:38.210Z,12.38
2023-04-21T02:27:06.594Z,13.27
2023-04-21T02:29:34.493Z,13.02
2023-04-21T02:32:14.292Z,13.93
2023-04-21T02:34:49.664Z,12.77
2023-04-21T02:37:17.292Z,13.05
2023-04-21T02:39:44.878Z,14.02
2023-04-21T02:42:12.470Z,13.98
2023-04-21T02:44:40.019Z,16.63
2023-04-21T02:47:08.941Z,15.93
2023-04-21T02:49:40.791Z,15.88
2023-04-21T02:52:08.331Z,14.90
2023-04-21T02:54:35.956Z,15.48
2023-04-21T02:57:03.647Z,16.83
2023-04-21T02:59:31.191Z,16.15
2023-04-21T03:01:58.758Z,16.88
2023-04-21T03:04:27.892Z,16.08
2023-04-21T03:06:55.690Z,14.15
2023-04-21T03:09:23.274Z,16.10
2023-04-21T03:11:50.836Z,16.05
2023-04-21T03:14:18.613Z,16.10
2023-04-21T03:16:47.397Z,16.65
2023-04-21T03:19:15.000Z,17.17
2023-04-21T03:21:43.924Z,17.15
2023-04-21T03:24:12.052Z,14.55
2023-04-21T03:26:40.103Z,17.33
2023-04-21T03:29:07.713Z,17.17
2023-04-21T03:31:35.362Z,16.52
2023-04-21T03:34:02.980Z,14.75
2023-04-21T03:36:31.184Z,13.38
2023-04-21T03:39:20.588Z,15.65
2023-04-21T03:41:48.135Z,14.63
2023-04-21T03:44:15.801Z,14.95
2023-04-21T03:46:43.334Z,15.63
2023-04-21T03:49:10.941Z,15.68
2023-04-21T03:51:38.490Z,16.60
2023-04-21T03:54:08.442Z,15.27
2023-04-21T03:56:36.136Z,14.77
2023-04-21T03:59:03.742Z,14.68
2023-04-21T04:01:31.483Z,15.55
2023-04-21T04:03:59.243Z,15.75
2023-04-21T04:06:28.426Z,15.23
2023-04-21T04:08:55.942Z,14.25
2023-04-21T04:11:24.961Z,14.90
2023-04-21T04:13:52.440Z,13.10
2023-04-21T04:16:20.060Z,14.15
2023-04-21T04:18:47.642Z,12.38
2023-04-21T04:21:15.178Z,11.98
2023-04-21T04:23:42.732Z,11.10
2023-04-21T04:26:11.356Z,11.45
2023-04-21T04:28:40.313Z,10.57
2023-04-21T04:31:07.922Z,10.45
2023-04-21T04:33:35.491Z,10.75
2023-04-21T04:36:03.051Z,10.88
2023-04-21T04:38:30.597Z,10.48
2023-04-21T04:40:59.063Z,11.05
2023-04-21T04:43:26.652Z,9.57
2023-04-21T04:45:55.571Z,9.63
2023-04-21T04:48:24.371Z,9.52
2023-04-21T04:50:51.969Z,10.05
2023-04-21T04:53:19.561Z,11.80
2023-04-21T04:55:47.218Z,12.73
2023-04-21T04:58:14.853Z,12.57
2023-04-21T05:00:42.450Z,12.98
2023-04-21T05:03:11.527Z,16.40
2023-04-21T05:05:39.306Z,17.17
2023-04-21T05:08:07.138Z,14.18
2023-04-21T05:10:34.777Z,13.68
2023-04-21T05:13:02.480Z,13.63
2023-04-21T05:15:30.205Z,12.82
2023-04-21T05:17:57.818Z,12.55
2023-04-21T05:20:26.740Z,11.93
2023-04-21T05:22:54.227Z,13.85
2023-04-21T05:25:21.822Z,15.07
2023-04-21T05:27:49.902Z,15.75
2023-04-21T05:30:17.465Z,17.13
2023-04-21T05:32:45.183Z,15.00
2023-04-21T05:35:12.860Z,13.43
2023-04-21T05:37:42.011Z,13.48
2023-04-21T05:40:10.973Z,13.93
2023-04-21T05:42:38.741Z,13.15
2023-04-21T05:45:07.625Z,12.65
2023-04-21T05:47:35.475Z,11.60
2023-04-21T05:50:03.153Z,14.55
2023-04-21T05:52:35.352Z,15.27
2023-04-21T05:55:04.792Z,16.35
2023-04-21T05:57:32.603Z,15.35
2023-04-21T06:00:00.659Z,17.52
2023-04-21T06:02:28.432Z,15.55
2023-04-21T06:04:56.514Z,14.07
2023-04-21T06:07:24.496Z,12.75
2023-04-21T06:09:52.309Z,11.95
2023-04-21T06:12:21.436Z,11.75
2023-04-21T06:14:49.018Z,12.02
2023-04-21T06:17:18.622Z,12.25
2023-04-21T06:19:46.488Z,10.23
2023-04-21T06:22:14.353Z,10.07
2023-04-21T06:24:42.154Z,11.68
2023-04-21T06:27:12.830Z,11.10
2023-04-21T06:29:43.340Z,11.73
2023-04-21T06:32:11.671Z,11.90
2023-04-21T06:34:40.054Z,12.95
2023-04-21T06:37:07.948Z,12.95
2023-04-21T06:39:35.756Z,13.43
2023-04-21T06:42:03.370Z,13.63
2023-04-21T06:44:32.378Z,14.07
2023-04-21T06:47:01.756Z,13.02
2023-04-21T06:49:29.563Z,14.52
2023-04-21T06:51:57.082Z,15.43
2023-04-21T06:54:24.696Z,15.13
2023-04-21T06:56:52.483Z,15.35
2023-04-21T06:59:20.748Z,13.68
2023-04-21T07:01:52.413Z,14.10
2023-04-21T07:04:22.349Z,13.15
2023-04-21T07:06:50.424Z,13.68
2023-04-21T07:09:18.483Z,13.07
2023-04-21T07:11:46.586Z,15.23
2023-04-21T07:14:14.400Z,13.35
2023-04-21T07:16:42.263Z,14.40
2023-04-21T07:19:10.092Z,14.20
2023-04-21T07:21:39.251Z,14.40
2023-04-21T07:24:07.342Z,14.18
2023-04-21T07:26:35.240Z,14.05
2023-04-21T07:29:03.131Z,15.35
2023-04-21T07:31:30.783Z,13.60
2023-04-21T07:33:58.591Z,12.82
2023-04-21T07:36:30.562Z,14.48
2023-04-21T07:39:00.249Z,14.52
2023-04-21T07:41:29.410Z,14.75
2023-04-21T07:43:57.178Z,15.07
2023-04-21T07:46:30.223Z,13.65
2023-04-21T07:48:57.967Z,14.15
2023-04-21T07:51:25.894Z,15.75
2023-04-21T07:53:53.500Z,14.18
2023-04-21T07:56:23.049Z,14.82
2023-04-21T07:58:50.868Z,14.73
2023-04-21T08:01:18.590Z,14.65
2023-04-21T08:03:46.451Z,14.40
2023-04-21T08:06:14.435Z,14.35
2023-04-21T08:08:42.718Z,15.18
2023-04-21T08:11:11.047Z,13.88
2023-04-21T08:13:40.516Z,15.45
2023-04-21T08:16:08.786Z,13.77
2023-04-21T08:18:36.764Z,14.98
2023-04-21T08:21:04.875Z,15.98
2023-04-21T08:23:32.924Z,14.60
2023-04-21T08:26:00.844Z,12.95
2023-04-21T08:28:28.781Z,14.10
2023-04-21T08:30:58.012Z,13.45
2023-04-21T08:33:26.302Z,13.27
2023-04-21T08:36:05.461Z,13.85
2023-04-21T08:38:38.094Z,14.40
2023-04-21T08:41:06.429Z,13.02
2023-04-21T08:43:34.466Z,13.88
2023-04-21T08:46:07.455Z,13.98
2023-04-21T08:48:37.437Z,14.40
2023-04-21T08:51:08.813Z,12.95
2023-04-21T08:53:37.115Z,11.85
2023-04-21T08:58:36.949Z,12.15
2023-04-21T09:01:06.588Z,14.32
2023-04-21T09:03:34.925Z,14.50
2023-04-21T09:06:05.888Z,13.00
2023-04-21T09:08:35.003Z,11.73
2023-04-21T09:11:03.344Z,13.00
2023-04-21T09:13:33.082Z,13.00
2023-04-21T09:16:02.748Z,12.70
2023-04-21T09:18:36.010Z,11.85
2023-04-21T09:21:08.356Z,11.45
2023-04-21T09:23:47.715Z,12.05
2023-04-21T09:26:16.902Z,13.30
2023-04-21T09:28:45.549Z,13.40
2023-04-21T09:31:21.260Z,13.02
2023-04-21T09:36:26.355Z,11.57
2023-04-21T09:39:25.210Z,11.38
2023-04-21T09:41:46.808Z,12.10
2023-04-21T09:44:14.603Z,11.55
2023-04-21T09:46:44.774Z,10.50
2023-04-21T09:49:17.450Z,11.80
2023-04-21T09:54:35.397Z,10.70
2023-04-21T09:57:05.311Z,10.35
2023-04-21T09:59:36.473Z,10.88
2023-04-21T10:02:10.811Z,10.60
2023-04-21T10:04:45.293Z,11.18
2023-04-21T10:07:13.644Z,10.75
2023-04-21T10:09:46.460Z,9.40
2023-04-21T10:12:15.644Z,10.18
2023-04-21T10:14:43.392Z,9.27
2023-04-21T10:17:12.362Z,10.52
2023-04-21T10:19:50.541Z,8.88
2023-04-21T10:22:29.664Z,8.63
2023-04-21T10:24:58.752Z,9.75
2023-04-21T10:27:33.939Z,10.20
2023-04-21T10:30:02.021Z,8.43
2023-04-21T10:32:41.360Z,8.95
2023-04-21T10:35:15.333Z,8.52
2023-04-21T10:37:44.184Z,8.65
2023-04-21T10:43:07.304Z,8.43
2023-04-21T10:45:35.076Z,8.07
2023-04-21T10:48:04.026Z,10.23
2023-04-21T10:50:33.372Z,9.70
2023-04-21T10:53:11.101Z,9.70
2023-04-21T10:55:42.527Z,10.45
2023-04-21T10:58:11.454Z,10.05
2023-04-21T11:00:40.844Z,9.80
2023-04-21T11:03:09.191Z,10.25
2023-04-21T11:05:46.252Z,9.60
2023-04-21T11:08:18.781Z,9.35
2023-04-21T11:13:22.729Z,8.38
2023-04-21T11:16:05.943Z,8.00
2023-04-21T11:18:41.385Z,8.27
2023-04-21T11:21:13.404Z,7.85
2023-04-21T11:23:42.290Z,8.13
2023-04-21T11:26:09.923Z,8.82
2023-04-21T11:28:38.071Z,7.68
2023-04-21T11:31:06.077Z,7.45
2023-04-21T11:33:37.234Z,6.90
2023-04-21T11:36:05.988Z,7.13
2023-04-21T11:38:40.781Z,6.57
2023-04-21T11:41:09.609Z,6.35
2023-04-21T11:43:37.941Z,6.10
2023-04-21T11:46:17.822Z,6.28
2023-04-21T11:48:46.100Z,6.53
2023-04-21T11:51:20.730Z,7.75
2023-04-21T11:53:51.350Z,6.82
2023-04-21T11:56:21.792Z,5.95
2023-04-21T11:58:52.108Z,8.32
2023-04-21T12:01:20.822Z,7.50
2023-04-21T12:03:53.052Z,6.82
2023-04-21T12:08:58.484Z,7.15
2023-04-21T12:11:26.162Z,6.97
2023-04-21T12:13:53.702Z,8.52
2023-04-21T12:16:21.278Z,8.35
2023-04-21T12:18:49.469Z,8.07
2023-04-21T12:21:17.408Z,6.68
2023-04-21T12:23:45.528Z,7.72
2023-04-21T12:26:14.419Z,7.15
2023-04-21T12:28:41.965Z,7.63
2023-04-21T12:31:09.520Z,7.35
2023-04-21T12:33:37.191Z,7.13
2023-04-21T12:36:05.231Z,6.10
2023-04-21T12:38:32.780Z,6.88
2023-04-21T12:41:00.375Z,7.22
2023-04-21T12:43:33.319Z,6.95
2023-04-21T12:46:01.841Z,6.53
2023-04-21T12:48:40.623Z,6.05
2023-04-21T12:51:20.248Z,5.53
2023-04-21T12:53:53.435Z,6.55
2023-04-21T12:56:22.311Z,6.00
2023-04-21T12:59:01.968Z,6.47
2023-04-21T13:01:33.714Z,6.60
2023-04-21T13:04:02.127Z,6.20
2023-04-21T13:06:31.006Z,7.22
2023-04-21T13:08:58.591Z,5.57
2023-04-21T13:11:26.305Z,5.25
2023-04-21T13:13:56.443Z,5.43
2023-04-21T13:16:25.138Z,5.53
2023-04-21T13:18:56.747Z,4.80
2023-04-21T13:21:30.084Z,4.03
2023-04-21T13:24:00.005Z,3.63
2023-04-21T13:26:30.660Z,4.00
2023-04-21T13:29:00.115Z,4.22
2023-04-21T13:31:28.135Z,3.72
2023-04-21T13:33:56.492Z,6.07
2023-04-21T13:36:24.605Z,5.43
2023-04-21T13:38:53.920Z,5.72
2023-04-21T13:41:21.652Z,5.18
2023-04-21T13:43:49.903Z,4.95
2023-04-21T13:46:21.110Z,4.75
2023-04-21T13:48:51.017Z,3.22
2023-04-21T13:51:19.884Z,4.07
2023-04-21T13:53:47.980Z,2.63
2023-04-21T13:56:15.750Z,2.92
2023-04-21T13:58:46.557Z,2.58
2023-04-21T14:01:14.900Z,3.53
2023-04-21T14:03:46.968Z,3.13
2023-04-21T14:06:14.870Z,2.55
2023-04-21T14:08:42.490Z,2.60
2023-04-21T14:11:10.080Z,2.28
2023-04-21T14:13:47.804Z,2.60
2023-04-21T14:16:19.842Z,3.05
2023-04-21T14:18:49.284Z,2.58
2023-04-21T14:21:19.935Z,3.63
2023-04-21T14:23:48.047Z,3.97
2023-04-21T14:26:16.580Z,3.15
2023-04-21T14:28:46.812Z,4.28
2023-04-21T14:31:22.404Z,4.65
2023-04-21T14:33:51.767Z,3.45
2023-04-21T14:36:19.379Z,3.65
2023-04-21T14:38:47.118Z,3.70
2023-04-21T14:41:14.711Z,4.22
2023-04-21T14:43:42.235Z,4.95
2023-04-21T14:46:09.922Z,4.30
2023-04-21T14:48:37.660Z,4.40
2023-04-21T14:51:09.303Z,3.33
2023-04-21T14:53:36.905Z,3.33
2023-04-21T14:56:04.735Z,3.95
2023-04-21T14:58:32.280Z,3.47
2023-04-21T15:00:59.979Z,3.95
2023-04-21T15:03:27.610Z,3.13
2023-04-21T15:05:55.391Z,3.58
2023-04-21T15:08:24.356Z,4.03
2023-04-21T15:10:52.115Z,4.70
2023-04-21T15:13:19.716Z,4.82
2023-04-21T15:15:47.222Z,4.90
2023-04-21T15:18:14.810Z,3.85
2023-04-21T15:20:45.829Z,3.33
2023-04-21T15:23:13.750Z,3.67
2023-04-21T15:25:42.965Z,4.28
2023-04-21T15:28:11.234Z,4.40
2023-04-21T15:30:39.508Z,3.97
2023-04-21T15:33:07.882Z,3.88
2023-04-21T15:35:36.538Z,3.80
2023-04-21T15:38:04.805Z,4.72
2023-04-21T15:40:33.116Z,4.93
2023-04-21T15:43:03.464Z,3.85
2023-04-21T15:45:31.282Z,4.38
2023-04-21T15:47:58.964Z,3.88
2023-04-21T15:50:26.741Z,3.60
2023-04-21T15:52:54.794Z,3.53
2023-04-21T15:55:23.040Z,3.47
2023-04-21T15:57:50.606Z,3.22
2023-04-21T16:00:20.021Z,2.90
2023-04-21T16:02:48.634Z,2.90
2023-04-21T16:05:17.104Z,3.50
2023-04-21T16:07:44.793Z,3.33
2023-04-21T16:10:12.892Z,3.13
2023-04-21T16:12:40.559Z,3.42
2023-04-21T16:17:45.320Z,4.00
2023-04-21T16:20:13.848Z,4.00
2023-04-21T16:22:41.565Z,3.72
2023-04-21T16:25:12.238Z,2.70
2023-04-21T16:27:39.989Z,4.25
2023-04-21T16:30:09.688Z,4.20
2023-04-21T16:32:37.539Z,2.30
2023-04-21T16:35:08.581Z,3.28
2023-04-21T16:37:38.089Z,3.13
2023-04-21T16:40:07.258Z,4.10
2023-04-21T16:42:35.224Z,3.10
2023-04-21T16:45:04.660Z,2.90
2023-04-21T16:47:33.874Z,2.92
2023-04-21T16:50:01.613Z,2.90
2023-04-21T16:52:30.609Z,3.28
2023-04-21T16:54:58.182Z,3.10
2023-04-21T16:57:25.885Z,2.78
2023-04-21T16:59:53.841Z,3.05
2023-04-21T17:02:21.598Z,2.65
2023-04-21T17:04:49.153Z,3.13
2023-04-21T17:07:16.873Z,4.43
2023-04-21T17:09:45.847Z,4.47
2023-04-21T17:12:13.339Z,4.68
2023-04-21T17:14:40.935Z,3.45
2023-04-21T17:17:08.612Z,4.43
2023-04-21T17:19:36.524Z,4.75
2023-04-21T17:22:04.116Z,3.90
2023-04-21T17:24:44.908Z,4.43
2023-04-21T17:27:20.836Z,4.13
2023-04-21T17:29:48.485Z,4.35
2023-04-21T17:32:16.187Z,4.38
2023-04-21T17:34:44.004Z,5.13
2023-04-21T17:37:11.730Z,3.80
2023-04-21T17:39:39.836Z,3.60
2023-04-21T17:42:07.686Z,4.03
2023-04-21T17:44:37.340Z,4.80
2023-04-21T17:47:08.343Z,4.90
2023-04-21T17:49:37.459Z,4.50
2023-04-21T17:52:06.967Z,4.55
2023-04-21T17:54:34.978Z,4.18
2023-04-21T17:57:03.789Z,4.30
2023-04-21T17:59:31.719Z,3.90
2023-04-21T18:02:00.964Z,4.38
2023-04-21T18:04:30.694Z,3.65
2023-04-21T18:06:58.952Z,3.25
2023-04-21T18:09:27.022Z,3.53
2023-04-21T18:11:54.966Z,3.53
2023-04-21T18:14:23.336Z,3.58
2023-04-21T18:16:50.937Z,3.53
2023-04-21T18:19:19.833Z,3.33
2023-04-21T18:21:47.529Z,5.32
2023-04-21T18:24:15.684Z,5.40
2023-04-21T18:26:43.865Z,5.03
2023-04-21T18:29:11.468Z,5.40
2023-04-21T18:31:39.380Z,5.28
2023-04-21T18:34:08.607Z,8.40
2023-04-21T18:36:38.607Z,6.72
2023-04-21T18:39:06.411Z,5.57
2023-04-21T18:41:33.995Z,3.83
2023-04-21T18:44:01.553Z,3.90
2023-04-21T18:46:29.189Z,4.15
2023-04-21T18:48:56.742Z,4.00
2023-04-21T18:51:24.943Z,3.92
2023-04-21T18:53:53.856Z,3.88
2023-04-21T18:56:21.372Z,3.40
2023-04-21T18:58:48.896Z,3.50
2023-04-21T19:01:16.566Z,3.30
2023-04-21T19:03:44.760Z,3.30
2023-04-21T19:06:12.567Z,3.75
2023-04-21T19:08:42.846Z,3.65
2023-04-21T19:11:14.668Z,4.57
2023-04-21T19:13:42.428Z,4.72
2023-04-21T19:16:11.726Z,5.18
2023-04-21T19:18:39.436Z,3.97
2023-04-21T19:21:07.157Z,4.82
2023-04-21T19:23:34.812Z,3.60
2023-04-21T19:26:05.018Z,3.70
2023-04-21T19:28:34.028Z,3.63
2023-04-21T19:31:01.583Z,4.20
2023-04-21T19:33:29.570Z,3.78
2023-04-21T19:35:58.271Z,3.92
2023-04-21T19:38:26.882Z,4.20
2023-04-21T19:40:54.918Z,4.38
2023-04-21T19:43:22.702Z,4.47
2023-04-21T19:45:51.960Z,4.20
2023-04-21T19:48:19.641Z,4.13
2023-04-21T19:50:47.334Z,4.53
2023-04-21T19:53:15.056Z,4.57
2023-04-21T19:55:42.775Z,4.07
2023-04-21T19:58:10.520Z,4.10
2023-04-21T20:00:38.506Z,4.90
2023-04-21T20:03:08.681Z,4.25
2023-04-21T20:05:36.424Z,4.43
2023-04-21T20:08:04.251Z,3.83
2023-04-21T20:10:31.832Z,4.15
2023-04-21T20:13:00.654Z,3.45
2023-04-21T20:15:28.682Z,3.47
2023-04-21T20:17:57.205Z,3.33
2023-04-21T20:20:26.557Z,3.67
2023-04-21T20:22:54.395Z,3.70
2023-04-21T20:25:22.164Z,3.58
2023-04-21T20:27:50.485Z,4.00
2023-04-21T20:30:19.094Z,3.83
2023-04-21T20:32:47.508Z,4.22
2023-04-21T20:35:16.955Z,3.83
2023-04-21T20:37:47.487Z,3.88
2023-04-21T20:40:16.039Z,4.50
2023-04-21T20:42:45.381Z,4.25
2023-04-21T20:45:13.468Z,5.03
2023-04-21T20:47:41.838Z,3.83
2023-04-21T20:50:10.873Z,4.00
2023-04-21T20:52:39.342Z,4.47
2023-04-21T20:55:09.397Z,4.10
2023-04-21T20:57:38.032Z,4.95
2023-04-21T21:00:07.170Z,4.30
2023-04-21T21:02:34.887Z,4.15
2023-04-21T21:05:02.570Z,4.22
2023-04-21T21:07:31.326Z,4.45
2023-04-21T21:09:58.935Z,4.25
2023-04-21T21:12:27.837Z,4.78
2023-04-21T21:14:55.517Z,4.15
2023-04-21T21:17:23.146Z,4.22
2023-04-21T21:19:50.809Z,3.95
2023-04-21T21:22:18.381Z,3.88
2023-04-21T21:24:46.602Z,4.40
2023-04-21T21:27:14.173Z,3.40
2023-04-21T21:29:43.255Z,3.30
2023-04-21T21:32:10.972Z,4.10
2023-04-21T21:34:38.559Z,3.97
2023-04-21T21:37:06.102Z,4.35
2023-04-21T21:39:33.670Z,3.63
2023-04-21T21:42:01.367Z,4.22
2023-04-21T21:44:28.944Z,3.92
2023-04-21T21:46:58.460Z,4.13
2023-04-21T21:49:26.140Z,3.83
2023-04-21T21:51:54.603Z,3.88
2023-04-21T21:54:22.229Z,3.83
2023-04-21T21:56:50.129Z,5.43
2023-04-21T21:59:17.739Z,6.90
2023-04-21T22:01:45.323Z,6.70
2023-04-21T22:04:14.365Z,6.25
2023-04-21T22:06:42.371Z,6.45
2023-04-21T22:09:09.973Z,6.97
2023-04-21T22:11:37.718Z,7.05
2023-04-21T22:14:18.506Z,5.63
2023-04-21T22:16:50.569Z,6.85
2023-04-21T22:19:19.744Z,5.85
2023-04-21T22:21:47.390Z,4.32
2023-04-21T22:24:15.355Z,4.70
2023-04-21T22:26:43.719Z,4.43
2023-04-21T22:29:11.410Z,4.03
2023-04-21T22:31:39.000Z,4.35
2023-04-21T22:34:06.563Z,4.50
2023-04-21T22:36:35.896Z,3.65
2023-04-21T22:39:04.274Z,3.65
2023-04-21T22:41:31.835Z,3.38
2023-04-21T22:43:59.668Z,4.38
2023-04-21T22:46:31.945Z,4.05
2023-04-21T22:48:59.885Z,5.25
2023-04-21T22:51:27.812Z,4.90
2023-04-21T22:53:56.764Z,4.90
2023-04-21T22:56:24.334Z,5.00
2023-04-21T22:58:52.091Z,5.35
2023-04-21T23:01:19.944Z,8.27
2023-04-21T23:03:47.579Z,7.68
2023-04-21T23:06:15.199Z,8.10
2023-04-21T23:08:42.707Z,7.15
2023-04-21T23:11:11.576Z,6.03
2023-04-21T23:13:39.812Z,5.28
2023-04-21T23:16:07.682Z,3.50
2023-04-21T23:18:35.850Z,3.30
2023-04-21T23:21:03.549Z,3.42
2023-04-21T23:23:31.281Z,4.22
2023-04-21T23:25:59.303Z,3.53
2023-04-21T23:28:28.209Z,3.72
2023-04-21T23:30:55.786Z,3.33
2023-04-21T23:33:23.558Z,3.33
2023-04-21T23:35:52.080Z,3.83
2023-04-21T23:38:19.588Z,3.58
2023-04-21T23:40:47.208Z,3.72
2023-04-21T23:43:14.822Z,3.40
2023-04-21T23:45:43.828Z,3.53
2023-04-21T23:48:11.733Z,5.10
2023-04-21T23:50:39.401Z,4.10
2023-04-21T23:53:07.064Z,4.35
2023-04-21T23:55:34.717Z,3.50
2023-04-21T23:58:02.247Z,3.75
